createdAt,value
2019-03-20T17:16:08.365Z,27.32
2019-03-20T17:20:14.824Z,32.58
2019-03-20T17:24:21.241Z,30.68
2019-03-20T17:28:27.631Z,40.80
2019-03-20T17:32:38.277Z,46.88
2019-03-20T17:36:44.759Z,48.70
2019-03-20T17:40:51.338Z,61.53
2019-03-20T17:42:55.001Z,69.65
2019-03-20T17:44:58.581Z,62.17
2019-03-20T17:49:06.792Z,66.67
2019-03-20T17:51:10.349Z,84.55
2019-03-20T17:55:16.769Z,66.65
2019-03-20T17:59:23.169Z,49.10
2019-03-20T18:03:29.595Z,60.83
2019-03-20T18:05:33.302Z,72.92
2019-03-20T18:07:36.873Z,64.60
2019-03-20T18:11:47.468Z,76.25
2019-03-20T18:13:48.482Z,70.60
2019-03-20T18:17:54.913Z,63.65
2019-03-20T18:19:58.503Z,79.77
2019-03-20T18:24:05.106Z,59.13
2019-03-20T18:26:08.704Z,87.92
2019-03-20T18:30:21.196Z,112.12
2019-03-20T18:32:24.759Z,107.20
2019-03-20T18:36:31.181Z,98.70
2019-03-20T18:38:34.828Z,101.45
2019-03-20T18:40:38.421Z,94.13
2019-03-20T18:44:44.927Z,105.80
2019-03-20T18:46:48.483Z,98.42
2019-03-20T18:50:54.874Z,90.95
2019-03-20T18:55:01.221Z,101.75
2019-03-20T18:59:07.671Z,90.32
2019-03-20T19:03:20.042Z,89.25
2019-03-20T19:05:26.719Z,89.00
2019-03-20T19:07:30.315Z,77.15
2019-03-20T19:09:33.874Z,79.40
2019-03-20T19:13:40.357Z,67.20
2019-03-20T19:15:44.313Z,83.70
2019-03-20T19:17:47.957Z,71.67
2019-03-20T19:19:51.686Z,83.22
2019-03-20T19:21:55.185Z,89.60
2019-03-20T19:26:01.659Z,96.42
2019-03-20T19:28:05.394Z,118.08
2019-03-20T19:30:12.107Z,105.30
2019-03-20T19:32:15.667Z,122.80
2019-03-20T19:36:26.336Z,213.90
2019-03-20T19:38:34.956Z,208.87
2019-03-20T19:40:35.592Z,258.05
2019-03-20T19:42:39.395Z,227.30
2019-03-20T19:44:42.995Z,217.07
2019-03-20T19:46:46.608Z,184.40
2019-03-20T19:48:50.162Z,201.95
2019-03-20T19:52:56.689Z,192.03
2019-03-20T19:55:00.280Z,190.70
2019-03-20T19:57:04.348Z,173.70
2019-03-20T19:59:07.947Z,179.53
2019-03-20T20:01:11.592Z,187.30
2019-03-20T20:03:15.250Z,178.15
2019-03-20T20:05:19.151Z,167.35
2019-03-20T20:07:22.744Z,158.87
2019-03-20T20:11:29.217Z,167.50
2019-03-20T20:13:32.973Z,197.02
2019-03-20T20:15:36.488Z,201.70
2019-03-20T20:17:40.157Z,192.18
2019-03-20T20:19:43.731Z,139.90
2019-03-20T20:23:50.194Z,145.17
2019-03-20T20:25:53.763Z,132.87
2019-03-20T20:30:00.342Z,132.40
2019-03-20T20:32:04.210Z,131.78
2019-03-20T20:34:07.839Z,130.22
2019-03-20T20:36:11.419Z,152.55
2019-03-20T20:40:20.150Z,131.60
2019-03-20T20:42:23.835Z,145.62
2019-03-20T20:44:27.345Z,150.82
2019-03-20T20:48:33.711Z,147.13
2019-03-20T20:50:37.367Z,144.45
2019-03-20T20:52:41.204Z,137.90
2019-03-20T20:54:44.848Z,135.72
2019-03-20T20:56:48.827Z,125.22
2019-03-20T20:58:52.439Z,126.82
2019-03-20T21:00:56.718Z,114.22
2019-03-20T21:03:07.078Z,140.25
2019-03-20T21:05:10.883Z,128.60
2019-03-20T21:07:14.508Z,122.28
2019-03-20T21:09:18.311Z,142.53
2019-03-20T21:11:24.137Z,133.95
2019-03-20T21:13:27.928Z,121.10
2019-03-20T21:15:38.710Z,116.55
2019-03-20T21:17:45.590Z,130.95
2019-03-20T21:19:49.203Z,119.40
2019-03-20T21:22:17.100Z,115.60
2019-03-20T21:24:23.399Z,125.20
2019-03-20T21:26:52.673Z,114.12
2019-03-20T21:29:34.489Z,121.28
2019-03-20T21:31:41.915Z,110.22
2019-03-20T21:33:51.100Z,113.88
2019-03-20T21:36:17.260Z,117.80
2019-03-20T21:38:19.753Z,105.78
2019-03-20T21:40:23.352Z,117.17
2019-03-20T21:42:32.813Z,122.20
2019-03-20T21:45:08.480Z,106.55
2019-03-20T21:47:15.155Z,99.58
2019-03-20T21:49:18.780Z,103.30
2019-03-20T21:51:22.725Z,98.60
2019-03-20T21:53:41.324Z,107.85
2019-03-20T21:56:16.861Z,96.92
2019-03-20T21:58:23.551Z,94.10
2019-03-20T22:00:59.475Z,98.62
2019-03-20T22:03:03.065Z,98.90
2019-03-20T22:05:23.269Z,95.60
2019-03-20T22:07:26.325Z,95.38
2019-03-20T22:11:37.476Z,96.82
2019-03-20T22:13:44.258Z,100.58
2019-03-20T22:16:14.720Z,105.63
2019-03-20T22:18:37.140Z,105.05
2019-03-20T22:21:00.423Z,109.75
2019-03-20T22:23:28.431Z,100.40
2019-03-20T22:25:37.726Z,107.50
2019-03-20T22:28:12.995Z,105.17
2019-03-20T22:30:17.008Z,100.15
2019-03-20T22:32:29.478Z,110.55
2019-03-20T22:34:52.795Z,105.58
2019-03-20T22:36:56.399Z,103.27
2019-03-20T22:39:11.986Z,97.72
2019-03-20T22:41:32.960Z,103.32
2019-03-20T22:43:42.123Z,97.02
2019-03-20T22:45:57.926Z,98.85
2019-03-20T22:48:19.480Z,93.15
2019-03-20T22:50:41.422Z,96.92
2019-03-20T22:52:53.709Z,94.00
2019-03-20T22:55:16.865Z,84.28
2019-03-20T22:57:26.090Z,83.47
2019-03-20T22:59:29.688Z,73.97
2019-03-20T23:01:45.415Z,90.55
2019-03-20T23:03:57.883Z,89.30
2019-03-20T23:06:01.440Z,87.33
2019-03-20T23:10:15.557Z,82.65
2019-03-20T23:12:19.469Z,79.50
2019-03-20T23:14:23.233Z,77.22
2019-03-20T23:16:26.802Z,63.68
2019-03-20T23:20:33.249Z,76.33
2019-03-20T23:22:36.803Z,77.37
2019-03-20T23:26:43.313Z,77.85
2019-03-20T23:28:46.953Z,70.17
2019-03-20T23:30:50.603Z,76.17
2019-03-20T23:32:54.143Z,82.50
2019-03-20T23:37:00.600Z,78.25
2019-03-20T23:39:06.884Z,71.40
2019-03-20T23:41:10.479Z,80.85
2019-03-20T23:43:14.484Z,72.75
2019-03-20T23:45:21.174Z,77.42
2019-03-20T23:47:27.855Z,72.10
2019-03-20T23:49:31.424Z,77.70
2019-03-20T23:53:41.519Z,82.20
2019-03-20T23:55:45.075Z,75.97
2019-03-20T23:59:51.519Z,69.80
